sensor_id;sensor_type;location;lat;lon;timestamp;P1;durP1;ratioP1;P2;durP2;ratioP2
41057;SDS011;27499;48.884;2.258;2022-07-15T00:02:13;9.40;;;7.35;;
41057;SDS011;27499;48.884;2.258;2022-07-15T00:04:41;7.38;;;6.88;;
41057;SDS011;27499;48.884;2.258;2022-07-15T00:07:08;7.15;;;6.30;;
41057;SDS011;27499;48.884;2.258;2022-07-15T00:09:35;5.97;;;5.47;;
41057;SDS011;27499;48.884;2.258;2022-07-15T00:14:47;11.70;;;5.30;;
41057;SDS011;27499;48.884;2.258;2022-07-15T00:17:14;5.97;;;5.50;;
41057;SDS011;27499;48.884;2.258;2022-07-15T00:19:41;5.50;;;5.00;;
41057;SDS011;27499;48.884;2.258;2022-07-15T00:22:08;5.88;;;4.97;;
41057;SDS011;27499;48.884;2.258;2022-07-15T00:24:36;5.60;;;4.80;;
41057;SDS011;27499;48.884;2.258;2022-07-15T00:27:03;10.43;;;4.97;;
41057;SDS011;27499;48.884;2.258;2022-07-15T00:29:30;6.75;;;4.30;;
41057;SDS011;27499;48.884;2.258;2022-07-15T00:31:57;5.07;;;4.65;;
41057;SDS011;27499;48.884;2.258;2022-07-15T00:34:25;7.90;;;5.05;;
41057;SDS011;27499;48.884;2.258;2022-07-15T00:36:52;6.90;;;4.45;;
41057;SDS011;27499;48.884;2.258;2022-07-15T00:39:19;5.38;;;4.50;;
41057;SDS011;27499;48.884;2.258;2022-07-15T00:41:46;6.32;;;4.32;;
41057;SDS011;27499;48.884;2.258;2022-07-15T00:44:13;4.75;;;4.35;;
41057;SDS011;27499;48.884;2.258;2022-07-15T00:46:40;7.97;;;5.22;;
41057;SDS011;27499;48.884;2.258;2022-07-15T00:49:08;4.95;;;4.65;;
41057;SDS011;27499;48.884;2.258;2022-07-15T00:51:36;5.90;;;4.28;;
41057;SDS011;27499;48.884;2.258;2022-07-15T00:54:08;3.97;;;3.67;;
41057;SDS011;27499;48.884;2.258;2022-07-15T00:56:41;4.78;;;4.15;;
41057;SDS011;27499;48.884;2.258;2022-07-15T00:59:12;4.43;;;4.05;;
41057;SDS011;27499;48.884;2.258;2022-07-15T01:01:40;5.45;;;4.50;;
41057;SDS011;27499;48.884;2.258;2022-07-15T01:04:08;4.68;;;4.10;;
41057;SDS011;27499;48.884;2.258;2022-07-15T01:06:37;5.47;;;4.60;;
41057;SDS011;27499;48.884;2.258;2022-07-15T01:09:04;5.60;;;4.75;;
41057;SDS011;27499;48.884;2.258;2022-07-15T01:11:31;41.58;;;7.35;;
41057;SDS011;27499;48.884;2.258;2022-07-15T01:13:58;4.45;;;3.92;;
41057;SDS011;27499;48.884;2.258;2022-07-15T01:16:26;5.70;;;4.00;;
41057;SDS011;27499;48.884;2.258;2022-07-15T01:18:53;5.32;;;4.47;;
41057;SDS011;27499;48.884;2.258;2022-07-15T01:21:21;4.70;;;3.97;;
41057;SDS011;27499;48.884;2.258;2022-07-15T01:23:48;5.20;;;3.97;;
41057;SDS011;27499;48.884;2.258;2022-07-15T01:26:16;4.45;;;4.05;;
41057;SDS011;27499;48.884;2.258;2022-07-15T01:28:43;8.50;;;4.50;;
41057;SDS011;27499;48.884;2.258;2022-07-15T01:31:10;4.38;;;3.97;;
41057;SDS011;27499;48.884;2.258;2022-07-15T01:33:38;5.53;;;4.50;;
41057;SDS011;27499;48.884;2.258;2022-07-15T01:36:05;6.18;;;4.72;;
41057;SDS011;27499;48.884;2.258;2022-07-15T01:38:33;4.93;;;4.53;;
41057;SDS011;27499;48.884;2.258;2022-07-15T01:41:13;21.17;;;4.53;;
41057;SDS011;27499;48.884;2.258;2022-07-15T01:43:40;4.68;;;4.38;;
41057;SDS011;27499;48.884;2.258;2022-07-15T01:46:07;5.00;;;4.35;;
41057;SDS011;27499;48.884;2.258;2022-07-15T01:48:34;4.70;;;4.30;;
41057;SDS011;27499;48.884;2.258;2022-07-15T01:53:47;4.35;;;3.97;;
41057;SDS011;27499;48.884;2.258;2022-07-15T01:56:14;6.20;;;3.92;;
41057;SDS011;27499;48.884;2.258;2022-07-15T01:58:41;4.35;;;3.92;;
41057;SDS011;27499;48.884;2.258;2022-07-15T02:01:08;5.10;;;4.55;;
41057;SDS011;27499;48.884;2.258;2022-07-15T02:03:35;4.68;;;4.25;;
41057;SDS011;27499;48.884;2.258;2022-07-15T02:06:02;4.82;;;4.50;;
41057;SDS011;27499;48.884;2.258;2022-07-15T02:08:29;7.13;;;4.15;;
41057;SDS011;27499;48.884;2.258;2022-07-15T02:10:56;5.30;;;4.82;;
41057;SDS011;27499;48.884;2.258;2022-07-15T02:13:23;5.18;;;4.20;;
41057;SDS011;27499;48.884;2.258;2022-07-15T02:15:50;4.57;;;4.18;;
41057;SDS011;27499;48.884;2.258;2022-07-15T02:18:17;5.72;;;4.50;;
41057;SDS011;27499;48.884;2.258;2022-07-15T02:20:44;7.32;;;4.38;;
41057;SDS011;27499;48.884;2.258;2022-07-15T02:23:12;8.32;;;4.40;;
41057;SDS011;27499;48.884;2.258;2022-07-15T02:25:39;5.07;;;4.78;;
41057;SDS011;27499;48.884;2.258;2022-07-15T02:28:07;4.60;;;4.20;;
41057;SDS011;27499;48.884;2.258;2022-07-15T02:30:36;4.85;;;4.35;;
41057;SDS011;27499;48.884;2.258;2022-07-15T02:33:05;5.32;;;4.85;;
41057;SDS011;27499;48.884;2.258;2022-07-15T02:35:33;4.40;;;4.10;;
41057;SDS011;27499;48.884;2.258;2022-07-15T02:38:00;4.60;;;4.10;;
41057;SDS011;27499;48.884;2.258;2022-07-15T02:40:27;13.45;;;4.05;;
41057;SDS011;27499;48.884;2.258;2022-07-15T02:42:55;4.20;;;3.80;;
41057;SDS011;27499;48.884;2.258;2022-07-15T02:45:24;4.95;;;4.55;;
41057;SDS011;27499;48.884;2.258;2022-07-15T02:47:53;4.18;;;3.88;;
41057;SDS011;27499;48.884;2.258;2022-07-15T02:50:21;4.28;;;3.83;;
41057;SDS011;27499;48.884;2.258;2022-07-15T02:52:48;6.13;;;4.10;;
41057;SDS011;27499;48.884;2.258;2022-07-15T02:55:16;4.95;;;4.13;;
41057;SDS011;27499;48.884;2.258;2022-07-15T02:57:43;4.18;;;3.88;;
41057;SDS011;27499;48.884;2.258;2022-07-15T03:00:11;7.93;;;5.63;;
41057;SDS011;27499;48.884;2.258;2022-07-15T03:02:40;7.10;;;4.10;;
41057;SDS011;27499;48.884;2.258;2022-07-15T03:05:08;4.13;;;3.85;;
41057;SDS011;27499;48.884;2.258;2022-07-15T03:07:36;4.32;;;4.03;;
41057;SDS011;27499;48.884;2.258;2022-07-15T03:10:03;4.57;;;4.18;;
41057;SDS011;27499;48.884;2.258;2022-07-15T03:12:31;5.75;;;4.32;;
41057;SDS011;27499;48.884;2.258;2022-07-15T03:14:59;5.35;;;4.75;;
41057;SDS011;27499;48.884;2.258;2022-07-15T03:17:27;6.93;;;4.13;;
41057;SDS011;27499;48.884;2.258;2022-07-15T03:19:54;4.40;;;4.10;;
41057;SDS011;27499;48.884;2.258;2022-07-15T03:22:24;6.80;;;5.85;;
41057;SDS011;27499;48.884;2.258;2022-07-15T03:24:53;5.43;;;5.03;;
41057;SDS011;27499;48.884;2.258;2022-07-15T03:27:21;5.00;;;4.53;;
41057;SDS011;27499;48.884;2.258;2022-07-15T03:29:48;5.00;;;4.70;;
41057;SDS011;27499;48.884;2.258;2022-07-15T03:32:16;5.35;;;4.95;;
41057;SDS011;27499;48.884;2.258;2022-07-15T03:34:45;5.80;;;5.18;;
41057;SDS011;27499;48.884;2.258;2022-07-15T03:37:15;6.07;;;5.32;;
41057;SDS011;27499;48.884;2.258;2022-07-15T03:39:42;7.28;;;5.25;;
41057;SDS011;27499;48.884;2.258;2022-07-15T03:42:09;5.07;;;4.68;;
41057;SDS011;27499;48.884;2.258;2022-07-15T03:44:36;5.03;;;4.72;;
41057;SDS011;27499;48.884;2.258;2022-07-15T03:47:03;5.45;;;4.95;;
41057;SDS011;27499;48.884;2.258;2022-07-15T03:49:30;6.32;;;5.75;;
41057;SDS011;27499;48.884;2.258;2022-07-15T03:51:57;5.82;;;5.43;;
41057;SDS011;27499;48.884;2.258;2022-07-15T03:54:24;7.30;;;6.57;;
41057;SDS011;27499;48.884;2.258;2022-07-15T03:56:51;6.38;;;5.97;;
41057;SDS011;27499;48.884;2.258;2022-07-15T03:59:18;5.60;;;5.15;;
41057;SDS011;27499;48.884;2.258;2022-07-15T04:01:48;6.30;;;5.70;;
41057;SDS011;27499;48.884;2.258;2022-07-15T04:04:15;5.93;;;5.53;;
41057;SDS011;27499;48.884;2.258;2022-07-15T04:06:42;5.88;;;5.38;;
41057;SDS011;27499;48.884;2.258;2022-07-15T04:09:10;6.32;;;5.75;;
41057;SDS011;27499;48.884;2.258;2022-07-15T04:11:37;6.75;;;6.28;;
41057;SDS011;27499;48.884;2.258;2022-07-15T04:14:10;6.38;;;5.88;;
41057;SDS011;27499;48.884;2.258;2022-07-15T04:16:43;6.70;;;6.15;;
41057;SDS011;27499;48.884;2.258;2022-07-15T04:19:10;6.07;;;5.57;;
41057;SDS011;27499;48.884;2.258;2022-07-15T04:21:37;6.85;;;6.22;;
41057;SDS011;27499;48.884;2.258;2022-07-15T04:24:04;5.90;;;5.38;;
41057;SDS011;27499;48.884;2.258;2022-07-15T04:26:31;5.63;;;5.13;;
41057;SDS011;27499;48.884;2.258;2022-07-15T04:28:58;6.00;;;5.60;;
41057;SDS011;27499;48.884;2.258;2022-07-15T04:31:25;7.30;;;5.13;;
41057;SDS011;27499;48.884;2.258;2022-07-15T04:33:52;5.50;;;5.10;;
41057;SDS011;27499;48.884;2.258;2022-07-15T04:36:19;5.72;;;5.00;;
41057;SDS011;27499;48.884;2.258;2022-07-15T04:38:46;6.25;;;5.60;;
41057;SDS011;27499;48.884;2.258;2022-07-15T04:41:13;5.05;;;4.70;;
41057;SDS011;27499;48.884;2.258;2022-07-15T04:43:40;5.70;;;5.20;;
41057;SDS011;27499;48.884;2.258;2022-07-15T04:46:07;4.60;;;4.18;;
41057;SDS011;27499;48.884;2.258;2022-07-15T04:48:34;5.38;;;4.85;;
41057;SDS011;27499;48.884;2.258;2022-07-15T04:51:20;4.47;;;4.10;;
41057;SDS011;27499;48.884;2.258;2022-07-15T04:53:46;4.45;;;4.15;;
41057;SDS011;27499;48.884;2.258;2022-07-15T04:56:13;5.53;;;4.07;;
41057;SDS011;27499;48.884;2.258;2022-07-15T04:58:41;5.25;;;4.72;;
41057;SDS011;27499;48.884;2.258;2022-07-15T05:01:08;4.53;;;4.22;;
41057;SDS011;27499;48.884;2.258;2022-07-15T05:03:36;4.65;;;3.80;;
41057;SDS011;27499;48.884;2.258;2022-07-15T05:06:03;4.70;;;4.15;;
41057;SDS011;27499;48.884;2.258;2022-07-15T05:08:30;4.82;;;4.38;;
41057;SDS011;27499;48.884;2.258;2022-07-15T05:10:57;3.92;;;3.50;;
41057;SDS011;27499;48.884;2.258;2022-07-15T05:13:24;5.53;;;3.95;;
41057;SDS011;27499;48.884;2.258;2022-07-15T05:15:51;4.13;;;3.70;;
41057;SDS011;27499;48.884;2.258;2022-07-15T05:18:18;4.55;;;4.13;;
41057;SDS011;27499;48.884;2.258;2022-07-15T05:20:45;7.75;;;3.90;;
41057;SDS011;27499;48.884;2.258;2022-07-15T05:23:12;6.97;;;4.15;;
41057;SDS011;27499;48.884;2.258;2022-07-15T05:25:39;4.20;;;3.80;;
41057;SDS011;27499;48.884;2.258;2022-07-15T05:28:06;4.38;;;3.95;;
41057;SDS011;27499;48.884;2.258;2022-07-15T05:30:33;4.20;;;3.80;;
41057;SDS011;27499;48.884;2.258;2022-07-15T05:33:03;5.55;;;4.15;;
41057;SDS011;27499;48.884;2.258;2022-07-15T05:35:30;4.53;;;4.13;;
41057;SDS011;27499;48.884;2.258;2022-07-15T05:37:57;5.30;;;3.85;;
41057;SDS011;27499;48.884;2.258;2022-07-15T05:40:24;5.13;;;3.97;;
41057;SDS011;27499;48.884;2.258;2022-07-15T05:42:51;4.65;;;4.22;;
41057;SDS011;27499;48.884;2.258;2022-07-15T05:45:19;4.05;;;3.63;;
41057;SDS011;27499;48.884;2.258;2022-07-15T05:47:47;5.18;;;4.47;;
41057;SDS011;27499;48.884;2.258;2022-07-15T05:50:17;6.47;;;4.38;;
41057;SDS011;27499;48.884;2.258;2022-07-15T05:52:45;5.10;;;3.28;;
41057;SDS011;27499;48.884;2.258;2022-07-15T05:55:12;8.13;;;3.95;;
41057;SDS011;27499;48.884;2.258;2022-07-15T05:57:39;10.73;;;4.35;;
41057;SDS011;27499;48.884;2.258;2022-07-15T06:00:11;7.55;;;3.60;;
41057;SDS011;27499;48.884;2.258;2022-07-15T06:02:39;5.55;;;4.05;;
41057;SDS011;27499;48.884;2.258;2022-07-15T06:05:07;5.30;;;3.63;;
41057;SDS011;27499;48.884;2.258;2022-07-15T06:07:34;7.05;;;3.90;;
41057;SDS011;27499;48.884;2.258;2022-07-15T06:10:02;4.35;;;3.90;;
41057;SDS011;27499;48.884;2.258;2022-07-15T06:12:31;3.83;;;3.42;;
41057;SDS011;27499;48.884;2.258;2022-07-15T06:14:58;4.07;;;3.45;;
41057;SDS011;27499;48.884;2.258;2022-07-15T06:17:24;10.18;;;4.95;;
41057;SDS011;27499;48.884;2.258;2022-07-15T06:19:52;4.95;;;4.20;;
41057;SDS011;27499;48.884;2.258;2022-07-15T06:22:18;4.20;;;3.58;;
41057;SDS011;27499;48.884;2.258;2022-07-15T06:24:45;4.47;;;4.07;;
41057;SDS011;27499;48.884;2.258;2022-07-15T06:27:12;6.68;;;4.50;;
41057;SDS011;27499;48.884;2.258;2022-07-15T06:29:39;4.45;;;3.58;;
41057;SDS011;27499;48.884;2.258;2022-07-15T06:32:06;4.47;;;3.67;;
41057;SDS011;27499;48.884;2.258;2022-07-15T06:34:34;4.82;;;3.92;;
41057;SDS011;27499;48.884;2.258;2022-07-15T06:37:01;5.90;;;3.45;;
41057;SDS011;27499;48.884;2.258;2022-07-15T06:39:28;4.90;;;3.63;;
41057;SDS011;27499;48.884;2.258;2022-07-15T06:41:55;5.88;;;4.25;;
41057;SDS011;27499;48.884;2.258;2022-07-15T06:44:21;5.82;;;3.55;;
41057;SDS011;27499;48.884;2.258;2022-07-15T06:46:48;4.05;;;3.75;;
41057;SDS011;27499;48.884;2.258;2022-07-15T06:49:22;4.30;;;3.90;;
41057;SDS011;27499;48.884;2.258;2022-07-15T06:51:50;4.40;;;4.00;;
41057;SDS011;27499;48.884;2.258;2022-07-15T06:54:18;6.20;;;4.20;;
41057;SDS011;27499;48.884;2.258;2022-07-15T06:56:45;6.80;;;4.18;;
41057;SDS011;27499;48.884;2.258;2022-07-15T06:59:11;5.10;;;3.97;;
41057;SDS011;27499;48.884;2.258;2022-07-15T07:01:38;5.05;;;4.13;;
41057;SDS011;27499;48.884;2.258;2022-07-15T07:04:06;4.10;;;3.70;;
41057;SDS011;27499;48.884;2.258;2022-07-15T07:06:33;5.75;;;4.28;;
41057;SDS011;27499;48.884;2.258;2022-07-15T07:09:00;5.10;;;4.35;;
41057;SDS011;27499;48.884;2.258;2022-07-15T07:11:27;6.32;;;4.85;;
41057;SDS011;27499;48.884;2.258;2022-07-15T07:13:54;6.45;;;4.63;;
41057;SDS011;27499;48.884;2.258;2022-07-15T07:16:21;6.13;;;4.72;;
41057;SDS011;27499;48.884;2.258;2022-07-15T07:18:49;10.57;;;5.72;;
41057;SDS011;27499;48.884;2.258;2022-07-15T07:21:17;9.38;;;5.72;;
41057;SDS011;27499;48.884;2.258;2022-07-15T07:23:48;6.25;;;5.78;;
41057;SDS011;27499;48.884;2.258;2022-07-15T07:26:15;6.38;;;5.82;;
41057;SDS011;27499;48.884;2.258;2022-07-15T07:28:43;7.47;;;6.25;;
41057;SDS011;27499;48.884;2.258;2022-07-15T07:31:12;6.40;;;5.80;;
41057;SDS011;27499;48.884;2.258;2022-07-15T07:33:40;6.40;;;5.80;;
41057;SDS011;27499;48.884;2.258;2022-07-15T07:36:07;5.10;;;4.70;;
41057;SDS011;27499;48.884;2.258;2022-07-15T07:38:34;6.60;;;5.70;;
41057;SDS011;27499;48.884;2.258;2022-07-15T07:41:02;4.55;;;4.25;;
41057;SDS011;27499;48.884;2.258;2022-07-15T07:43:30;6.22;;;4.10;;
41057;SDS011;27499;48.884;2.258;2022-07-15T07:45:58;4.20;;;3.90;;
41057;SDS011;27499;48.884;2.258;2022-07-15T07:48:25;5.47;;;3.60;;
41057;SDS011;27499;48.884;2.258;2022-07-15T07:50:53;9.63;;;3.60;;
41057;SDS011;27499;48.884;2.258;2022-07-15T07:53:20;4.10;;;3.30;;
41057;SDS011;27499;48.884;2.258;2022-07-15T07:55:47;3.33;;;3.03;;
41057;SDS011;27499;48.884;2.258;2022-07-15T07:58:15;3.90;;;2.90;;
41057;SDS011;27499;48.884;2.258;2022-07-15T08:00:43;3.40;;;3.05;;
41057;SDS011;27499;48.884;2.258;2022-07-15T08:03:11;7.75;;;3.80;;
41057;SDS011;27499;48.884;2.258;2022-07-15T08:05:38;3.83;;;2.58;;
41057;SDS011;27499;48.884;2.258;2022-07-15T08:08:11;2.35;;;2.15;;
41057;SDS011;27499;48.884;2.258;2022-07-15T08:10:40;5.25;;;2.38;;
41057;SDS011;27499;48.884;2.258;2022-07-15T08:13:13;4.93;;;2.53;;
41057;SDS011;27499;48.884;2.258;2022-07-15T08:15:42;5.88;;;3.00;;
41057;SDS011;27499;48.884;2.258;2022-07-15T08:18:10;2.75;;;2.22;;
41057;SDS011;27499;48.884;2.258;2022-07-15T08:20:37;2.97;;;2.58;;
41057;SDS011;27499;48.884;2.258;2022-07-15T08:23:04;4.75;;;2.92;;
41057;SDS011;27499;48.884;2.258;2022-07-15T08:25:33;3.35;;;3.00;;
41057;SDS011;27499;48.884;2.258;2022-07-15T08:28:05;4.28;;;2.55;;
41057;SDS011;27499;48.884;2.258;2022-07-15T08:30:33;5.63;;;3.20;;
41057;SDS011;27499;48.884;2.258;2022-07-15T08:33:01;5.35;;;2.83;;
41057;SDS011;27499;48.884;2.258;2022-07-15T08:35:29;5.55;;;3.95;;
41057;SDS011;27499;48.884;2.258;2022-07-15T08:37:56;3.58;;;3.28;;
41057;SDS011;27499;48.884;2.258;2022-07-15T08:40:23;5.05;;;4.15;;
41057;SDS011;27499;48.884;2.258;2022-07-15T08:42:52;5.05;;;3.60;;
41057;SDS011;27499;48.884;2.258;2022-07-15T08:45:19;4.07;;;3.55;;
41057;SDS011;27499;48.884;2.258;2022-07-15T08:47:46;6.53;;;3.47;;
41057;SDS011;27499;48.884;2.258;2022-07-15T08:50:19;4.10;;;3.80;;
41057;SDS011;27499;48.884;2.258;2022-07-15T08:52:47;4.90;;;4.50;;
41057;SDS011;27499;48.884;2.258;2022-07-15T08:55:15;4.40;;;3.90;;
41057;SDS011;27499;48.884;2.258;2022-07-15T08:57:46;5.07;;;3.55;;
41057;SDS011;27499;48.884;2.258;2022-07-15T09:00:14;3.72;;;3.42;;
41057;SDS011;27499;48.884;2.258;2022-07-15T09:02:41;5.03;;;3.67;;
41057;SDS011;27499;48.884;2.258;2022-07-15T09:10:26;3.58;;;2.90;;
41057;SDS011;27499;48.884;2.258;2022-07-15T09:13:06;3.00;;;2.80;;
41057;SDS011;27499;48.884;2.258;2022-07-15T09:15:35;3.60;;;3.30;;
41057;SDS011;27499;48.884;2.258;2022-07-15T09:20:33;4.15;;;3.75;;
41057;SDS011;27499;48.884;2.258;2022-07-15T09:23:01;5.80;;;3.17;;
41057;SDS011;27499;48.884;2.258;2022-07-15T09:25:29;4.30;;;3.42;;
41057;SDS011;27499;48.884;2.258;2022-07-15T09:28:03;3.10;;;2.90;;
41057;SDS011;27499;48.884;2.258;2022-07-15T09:30:36;3.58;;;3.30;;
41057;SDS011;27499;48.884;2.258;2022-07-15T09:33:24;3.50;;;3.30;;
41057;SDS011;27499;48.884;2.258;2022-07-15T09:38:33;3.33;;;3.03;;
41057;SDS011;27499;48.884;2.258;2022-07-15T09:41:09;3.17;;;2.93;;
41057;SDS011;27499;48.884;2.258;2022-07-15T09:43:43;3.13;;;2.92;;
41057;SDS011;27499;48.884;2.258;2022-07-15T09:46:12;2.92;;;2.72;;
41057;SDS011;27499;48.884;2.258;2022-07-15T09:48:40;3.05;;;2.85;;
41057;SDS011;27499;48.884;2.258;2022-07-15T09:51:08;4.85;;;3.20;;
41057;SDS011;27499;48.884;2.258;2022-07-15T09:53:36;2.97;;;2.75;;
41057;SDS011;27499;48.884;2.258;2022-07-15T09:56:05;3.58;;;2.40;;
41057;SDS011;27499;48.884;2.258;2022-07-15T09:58:38;3.00;;;2.55;;
41057;SDS011;27499;48.884;2.258;2022-07-15T10:01:07;4.35;;;2.78;;
41057;SDS011;27499;48.884;2.258;2022-07-15T10:03:36;2.60;;;2.40;;
41057;SDS011;27499;48.884;2.258;2022-07-15T10:06:04;2.65;;;2.47;;
41057;SDS011;27499;48.884;2.258;2022-07-15T10:08:32;2.80;;;2.60;;
41057;SDS011;27499;48.884;2.258;2022-07-15T10:11:01;2.63;;;2.42;;
41057;SDS011;27499;48.884;2.258;2022-07-15T10:13:38;3.08;;;2.75;;
41057;SDS011;27499;48.884;2.258;2022-07-15T10:30:06;5.43;;;2.92;;
41057;SDS011;27499;48.884;2.258;2022-07-15T10:33:19;3.38;;;3.03;;
41057;SDS011;27499;48.884;2.258;2022-07-15T10:44:03;3.70;;;3.15;;
41057;SDS011;27499;48.884;2.258;2022-07-15T10:46:35;3.58;;;3.28;;
41057;SDS011;27499;48.884;2.258;2022-07-15T10:56:52;4.07;;;3.78;;
41057;SDS011;27499;48.884;2.258;2022-07-15T10:59:21;3.40;;;3.20;;
41057;SDS011;27499;48.884;2.258;2022-07-15T11:04:30;4.03;;;3.72;;
41057;SDS011;27499;48.884;2.258;2022-07-15T11:14:55;3.40;;;3.20;;
41057;SDS011;27499;48.884;2.258;2022-07-15T11:20:01;4.18;;;3.78;;
41057;SDS011;27499;48.884;2.258;2022-07-15T11:22:39;4.30;;;3.85;;
41057;SDS011;27499;48.884;2.258;2022-07-15T11:30:39;3.90;;;3.60;;
41057;SDS011;27499;48.884;2.258;2022-07-15T11:33:11;4.75;;;3.38;;
41057;SDS011;27499;48.884;2.258;2022-07-15T11:38:18;3.00;;;2.80;;
41057;SDS011;27499;48.884;2.258;2022-07-15T11:40:50;4.03;;;3.03;;
41057;SDS011;27499;48.884;2.258;2022-07-15T11:43:38;4.30;;;3.40;;
41057;SDS011;27499;48.884;2.258;2022-07-15T11:46:27;3.50;;;3.10;;
41057;SDS011;27499;48.884;2.258;2022-07-15T11:48:58;3.92;;;3.40;;
41057;SDS011;27499;48.884;2.258;2022-07-15T11:51:26;3.28;;;3.08;;
41057;SDS011;27499;48.884;2.258;2022-07-15T11:53:56;2.60;;;2.40;;
41057;SDS011;27499;48.884;2.258;2022-07-15T11:56:24;3.72;;;2.53;;
41057;SDS011;27499;48.884;2.258;2022-07-15T11:58:52;2.58;;;2.03;;
41057;SDS011;27499;48.884;2.258;2022-07-15T12:01:22;2.20;;;2.10;;
41057;SDS011;27499;48.884;2.258;2022-07-15T12:03:52;2.97;;;2.40;;
41057;SDS011;27499;48.884;2.258;2022-07-15T12:06:22;2.65;;;2.45;;
41057;SDS011;27499;48.884;2.258;2022-07-15T12:08:52;8.38;;;2.80;;
41057;SDS011;27499;48.884;2.258;2022-07-15T12:11:25;2.58;;;2.38;;
41057;SDS011;27499;48.884;2.258;2022-07-15T12:14:00;3.72;;;2.45;;
41057;SDS011;27499;48.884;2.258;2022-07-15T12:16:33;2.63;;;2.42;;
41057;SDS011;27499;48.884;2.258;2022-07-15T12:19:07;3.67;;;2.43;;
41057;SDS011;27499;48.884;2.258;2022-07-15T12:21:39;3.00;;;2.30;;
41057;SDS011;27499;48.884;2.258;2022-07-15T12:24:15;2.10;;;2.00;;
41057;SDS011;27499;48.884;2.258;2022-07-15T12:29:20;2.55;;;2.45;;
41057;SDS011;27499;48.884;2.258;2022-07-15T12:32:14;2.30;;;2.10;;
41057;SDS011;27499;48.884;2.258;2022-07-15T12:34:52;2.22;;;2.03;;
41057;SDS011;27499;48.884;2.258;2022-07-15T12:37:22;2.53;;;2.33;;
41057;SDS011;27499;48.884;2.258;2022-07-15T12:40:04;2.10;;;2.00;;
41057;SDS011;27499;48.884;2.258;2022-07-15T12:42:32;2.20;;;2.00;;
41057;SDS011;27499;48.884;2.258;2022-07-15T12:45:16;5.10;;;2.00;;
41057;SDS011;27499;48.884;2.258;2022-07-15T12:53:21;2.45;;;2.35;;
41057;SDS011;27499;48.884;2.258;2022-07-15T12:55:51;2.67;;;2.08;;
41057;SDS011;27499;48.884;2.258;2022-07-15T12:58:28;3.30;;;2.45;;
41057;SDS011;27499;48.884;2.258;2022-07-15T13:03:53;2.53;;;2.33;;
41057;SDS011;27499;48.884;2.258;2022-07-15T13:06:20;2.53;;;2.33;;
41057;SDS011;27499;48.884;2.258;2022-07-15T13:08:47;2.22;;;2.13;;
41057;SDS011;27499;48.884;2.258;2022-07-15T13:11:14;3.08;;;1.90;;
41057;SDS011;27499;48.884;2.258;2022-07-15T13:13:41;2.15;;;1.88;;
41057;SDS011;27499;48.884;2.258;2022-07-15T13:16:08;2.20;;;2.05;;
41057;SDS011;27499;48.884;2.258;2022-07-15T13:18:36;2.10;;;1.98;;
41057;SDS011;27499;48.884;2.258;2022-07-15T13:21:03;3.58;;;2.67;;
41057;SDS011;27499;48.884;2.258;2022-07-15T13:23:30;2.65;;;2.05;;
41057;SDS011;27499;48.884;2.258;2022-07-15T13:25:58;2.28;;;2.17;;
41057;SDS011;27499;48.884;2.258;2022-07-15T13:28:25;3.42;;;2.35;;
41057;SDS011;27499;48.884;2.258;2022-07-15T13:30:52;4.32;;;2.50;;
41057;SDS011;27499;48.884;2.258;2022-07-15T13:33:19;3.25;;;2.72;;
41057;SDS011;27499;48.884;2.258;2022-07-15T13:35:47;5.28;;;2.28;;
41057;SDS011;27499;48.884;2.258;2022-07-15T13:38:14;2.38;;;2.10;;
41057;SDS011;27499;48.884;2.258;2022-07-15T13:40:41;2.15;;;2.05;;
41057;SDS011;27499;48.884;2.258;2022-07-15T13:43:08;3.33;;;2.00;;
41057;SDS011;27499;48.884;2.258;2022-07-15T13:45:35;4.45;;;2.30;;
41057;SDS011;27499;48.884;2.258;2022-07-15T13:48:11;2.22;;;2.10;;
41057;SDS011;27499;48.884;2.258;2022-07-15T13:50:38;2.08;;;1.70;;
41057;SDS011;27499;48.884;2.258;2022-07-15T13:53:23;2.10;;;2.00;;
41057;SDS011;27499;48.884;2.258;2022-07-15T13:55:50;2.00;;;1.90;;
41057;SDS011;27499;48.884;2.258;2022-07-15T13:58:17;2.00;;;1.90;;
41057;SDS011;27499;48.884;2.258;2022-07-15T14:00:44;2.00;;;1.90;;
41057;SDS011;27499;48.884;2.258;2022-07-15T14:03:11;2.35;;;2.15;;
41057;SDS011;27499;48.884;2.258;2022-07-15T14:05:38;2.03;;;1.83;;
41057;SDS011;27499;48.884;2.258;2022-07-15T14:08:05;3.45;;;2.03;;
41057;SDS011;27499;48.884;2.258;2022-07-15T14:10:32;3.53;;;2.20;;
41057;SDS011;27499;48.884;2.258;2022-07-15T14:12:59;3.00;;;2.20;;
41057;SDS011;27499;48.884;2.258;2022-07-15T14:15:26;2.38;;;2.20;;
41057;SDS011;27499;48.884;2.258;2022-07-15T14:18:03;4.10;;;2.30;;
41057;SDS011;27499;48.884;2.258;2022-07-15T14:20:30;2.58;;;1.92;;
41057;SDS011;27499;48.884;2.258;2022-07-15T14:22:57;4.95;;;1.88;;
41057;SDS011;27499;48.884;2.258;2022-07-15T14:25:24;4.20;;;1.90;;
41057;SDS011;27499;48.884;2.258;2022-07-15T14:27:52;3.65;;;2.42;;
41057;SDS011;27499;48.884;2.258;2022-07-15T14:30:21;3.30;;;2.30;;
41057;SDS011;27499;48.884;2.258;2022-07-15T14:32:49;2.60;;;1.75;;
41057;SDS011;27499;48.884;2.258;2022-07-15T14:35:18;1.83;;;1.73;;
41057;SDS011;27499;48.884;2.258;2022-07-15T14:37:46;2.95;;;2.03;;
41057;SDS011;27499;48.884;2.258;2022-07-15T14:40:15;1.85;;;1.73;;
41057;SDS011;27499;48.884;2.258;2022-07-15T14:42:42;2.15;;;1.92;;
41057;SDS011;27499;48.884;2.258;2022-07-15T14:45:09;1.80;;;1.70;;
41057;SDS011;27499;48.884;2.258;2022-07-15T14:47:36;4.03;;;1.80;;
41057;SDS011;27499;48.884;2.258;2022-07-15T14:50:03;2.10;;;2.00;;
41057;SDS011;27499;48.884;2.258;2022-07-15T14:52:31;2.35;;;1.85;;
41057;SDS011;27499;48.884;2.258;2022-07-15T14:54:58;2.60;;;2.40;;
41057;SDS011;27499;48.884;2.258;2022-07-15T14:57:25;4.85;;;1.85;;
41057;SDS011;27499;48.884;2.258;2022-07-15T14:59:52;1.98;;;1.80;;
41057;SDS011;27499;48.884;2.258;2022-07-15T15:02:19;1.83;;;1.73;;
41057;SDS011;27499;48.884;2.258;2022-07-15T15:04:48;2.30;;;2.10;;
41057;SDS011;27499;48.884;2.258;2022-07-15T15:07:16;6.95;;;3.33;;
41057;SDS011;27499;48.884;2.258;2022-07-15T15:09:43;2.30;;;2.10;;
41057;SDS011;27499;48.884;2.258;2022-07-15T15:12:10;2.45;;;2.00;;
41057;SDS011;27499;48.884;2.258;2022-07-15T15:14:37;2.25;;;2.10;;
41057;SDS011;27499;48.884;2.258;2022-07-15T15:17:04;2.00;;;1.90;;
41057;SDS011;27499;48.884;2.258;2022-07-15T15:19:34;2.10;;;2.00;;
41057;SDS011;27499;48.884;2.258;2022-07-15T15:22:03;1.90;;;1.80;;
41057;SDS011;27499;48.884;2.258;2022-07-15T15:24:30;1.80;;;1.70;;
41057;SDS011;27499;48.884;2.258;2022-07-15T15:26:58;2.30;;;2.10;;
41057;SDS011;27499;48.884;2.258;2022-07-15T15:29:28;3.78;;;1.83;;
41057;SDS011;27499;48.884;2.258;2022-07-15T15:31:55;2.08;;;1.70;;
41057;SDS011;27499;48.884;2.258;2022-07-15T15:34:22;2.95;;;2.00;;
41057;SDS011;27499;48.884;2.258;2022-07-15T15:36:49;1.63;;;1.52;;
41057;SDS011;27499;48.884;2.258;2022-07-15T15:39:16;3.17;;;2.35;;
41057;SDS011;27499;48.884;2.258;2022-07-15T15:41:43;2.92;;;2.35;;
41057;SDS011;27499;48.884;2.258;2022-07-15T15:44:10;1.85;;;1.75;;
41057;SDS011;27499;48.884;2.258;2022-07-15T15:46:39;2.50;;;2.40;;
41057;SDS011;27499;48.884;2.258;2022-07-15T15:49:07;1.98;;;1.88;;
41057;SDS011;27499;48.884;2.258;2022-07-15T15:51:34;2.15;;;2.00;;
41057;SDS011;27499;48.884;2.258;2022-07-15T15:54:01;1.98;;;1.83;;
41057;SDS011;27499;48.884;2.258;2022-07-15T15:56:28;1.80;;;1.70;;
41057;SDS011;27499;48.884;2.258;2022-07-15T15:58:55;2.35;;;2.00;;
41057;SDS011;27499;48.884;2.258;2022-07-15T16:01:22;2.17;;;2.00;;
41057;SDS011;27499;48.884;2.258;2022-07-15T16:03:49;1.92;;;1.70;;
41057;SDS011;27499;48.884;2.258;2022-07-15T16:06:16;1.80;;;1.70;;
41057;SDS011;27499;48.884;2.258;2022-07-15T16:08:49;2.00;;;1.80;;
41057;SDS011;27499;48.884;2.258;2022-07-15T16:11:17;4.15;;;1.90;;
41057;SDS011;27499;48.884;2.258;2022-07-15T16:13:44;2.60;;;2.00;;
41057;SDS011;27499;48.884;2.258;2022-07-15T16:16:11;3.75;;;2.20;;